TAF Text Data
IDs:
Format:
Raw Decoded Include METAR

Data at: 1842 UTC 23 Jan 2019

KTYS 231753Z 19018G25KT 10SM -RA OVC080 16/08 A2996 RMK AO2 PK WND 19032/1704 RAB44 SLP142 P0000 60000 T01560083 10167 20044 58031

KTYS 231720Z 2318/2418 19020G30KT P6SM VCSH OVC050 WS020/19055KT
  FM232300 21018G28KT 4SM -RA BR OVC040 WS020/19050KT
  FM240100 23012G22KT 3SM -RA BR OVC015
  FM240400 26010KT 3SM -RA BR OVC008
  FM241100 27012KT P6SM VCSH OVC015


KGSO 231811Z VRB03KT 6SM BR SCT007 OVC013 03/02 A3019 RMK AO2 PRESFR T00330022

KGSO 231720Z 2318/2418 32005KT 5SM -DZ BR OVC009
  TEMPO 2318/2320 2SM BR OVC007
  FM232000 VRB03KT P6SM -RA OVC003 WS020/19030KT
  FM240300 19010G18KT 5SM -SHRA BR OVC003 WS020/19045KT
  FM240800 19014G24KT 2SM SHRA BR OVC008 WS020/20055KT
  FM241200 22009KT 4SM SHRA BR OVC015
  FM241600 29012G19KT P6SM SCT015


KCLT 231752Z 14005KT 7SM FEW013 SCT019 OVC090 07/03 A3021 RMK AO2 PRESFR SLP234 60004 T00670033 10067 20006 58041

KCLT 231735Z 2318/2424 10005KT 6SM BR VCSH OVC015 WS020/18035KT
  FM232200 16010G16KT 4SM BR VCSH OVC007
  FM240000 16010G20KT 4SM SHRA BR OVC007
  FM240600 18016G25KT 4SM SHRA BR OVC012
  FM241500 28010G18KT P6SM BKN022
  FM242200 30009KT P6SM SKC


KRDU 231751Z 23005KT 10SM SCT026 BKN085 OVC250 13/06 A3024 RMK AO2 PRESFR SLP242 T01330061 10133 20006 58034

KRDU 231800Z 2318/2418 22008G16KT P6SM FEW015 OVC050 WS020/17030KT
  FM240000 16011G21KT P6SM OVC025 WS020/18040KT
  FM240600 18010KT P6SM VCSH OVC018 WS020/19045KT
  FM240900 19012G22KT 2SM SHRA OVC003 WS020/20050KT
  FM241400 22014G21KT 5SM -RA BR OVC007
  FM241700 27010G18KT P6SM VCSH BKN025


KPOB 231831Z AUTO 19011G19KT 10SM OVC080 18/11 A3019 RMK AO2 PRESFR SLP227 $

TAF KPOB 231800Z 2318/2424 17010G15KT 9999 BKN080 510005 QNH3003INS
  BECMG 2322/2323 21012G18KT 9999 OVC020 520005 QNH2983INS
  BECMG 2404/2405 23015G25KT 9999 OVC015 520005 QNH2972INS
  BECMG 2408/2409 24015G25KT 8000 -SHRA OVC010 520005 QNH2967INS
  BECMG 2412/2413 24010G15KT 8000 -SHRA OVC010 510005 QNH2962INS
  BECMG 2415/2416 26010G15KT 9999 VCSH BKN015 OVC040 QNH2965INS
  TEMPO 2416/2418 25015G25KT
  BECMG 2422/2423 31009KT 9999 NSW BKN035 QNH2985INS TX21/2416Z TN15/2318Z


KFBG 231828Z AUTO 18013G20KT 10SM FEW085 18/11 A3019 RMK AO2 SLP227

TAF KFBG 231800Z 2318/2424 17010G15KT 9999 BKN080 510005 QNH3003INS
  BECMG 2322/2323 21012G18KT 9999 OVC020 520005 QNH2983INS
  BECMG 2404/2405 23015G25KT 9999 OVC015 520005 QNH2972INS
  BECMG 2408/2409 24015G25KT 8000 -SHRA OVC010 520005 QNH2967INS
  BECMG 2412/2413 24010G15KT 8000 -SHRA OVC010 510005 QNH2962INS
  BECMG 2415/2416 26010G15KT 9999 VCSH BKN015 OVC040 QNH2965INS
  TEMPO 2416/2418 25015G25KT
  BECMG 2422/2423 31009KT 9999 NSW BKN035 QNH2985INS TX21/2416Z TN15/2318Z


KFAY 231753Z 17013G23KT 10SM OVC085 18/11 A3024 RMK AO2 SLP236 T01830106 10183 20011 58032

KFAY 231759Z 2318/2418 17012G24KT P6SM BKN050 WS020/18035KT
  FM240300 18014G24KT P6SM VCSH OVC030
  FM240900 19016G26KT 2SM SHRA BR OVC008
  FM241200 19018G30KT 4SM SHRA BR OVC007
  FM241600 23015G23KT 6SM -RA OVC015


KRWI 231753Z AUTO 18009G16KT 10SM SCT085 17/09 A3026 RMK AO2 SLP249 T01720094 10172 21011 58035

KRWI 231759Z 2318/2418 17008G16KT P6SM BKN060 WS020/18030KT
  FM232100 16007KT P6SM OVC060 WS020/18035KT
  FM240300 18011G21KT P6SM OVC035
  FM240700 18013G23KT P6SM VCSH OVC015
  FM241000 18014G24KT 2SM SHRA BR OVC003
  FM241700 25010G18KT 4SM -RA BR OVC025


KISO 231756Z 19017G23KT 10SM OVC080 18/10 A3030

KISO 231720Z 2318/2418 17012G20KT P6SM SCT040 BKN070
  FM240400 18013G24KT P6SM BKN040 WS020/18040KT
  FM241000 19019G29KT 4SM SHRA SCT015 OVC030 WS020/20050KT
  FM241600 23015G25KT P6SM OVC020 AMD LTD TO CLD VIS AND WIND


KGWW 231820Z AUTO 16010G20KT 10SM OVC085 17/11 A3025 RMK AO2 T01730106


KGSB 231756Z AUTO 15013G19KT 10SM BKN085 18/10 A3026 RMK AO2 SLP250 T01770098 10177 20005 57030 $

TAF AMD KGSB 231745Z 2317/2419 17012G23KT 9999 OVC080 WS020/17035KT QNH3011INS
  BECMG 2321/2322 15012G20KT 9999 BKN020 WS020/18040KT QNH2982INS
  BECMG 2407/2408 17022G31KT 8000 -SHRA OVC015 WS020/18050KT QNH2960INS TX20/2418Z TN18/2317Z


KDPL 231820Z AUTO 17009KT 030V220 10SM SCT034 BKN080 19/11 A3027 RMK AO2


KCTZ 231820Z AUTO 16009G14KT 100V200 10SM CLR 19/12 A3025 RMK AO2 T01870116


KORF 231751Z 19019G26KT 10SM CLR 18/07 A3026 RMK AO2 PK WND 19029/1734 SLP245 T01780072 10178 20006 58034

KORF 231748Z 2318/2418 19018G26KT P6SM SCT050 BKN080
  FM240400 18019G29KT P6SM BKN060 WS020/19050KT
  FM240800 18018G27KT P6SM OVC040 WS020/19050KT
  FM241200 18022G32KT 6SM -RA OVC025 WS020/19055KT
  FM241400 19020G30KT 2SM +RA BR OVC009 WS020/19055KT
  FM241600 22015G25KT 4SM RA BR OVC015


KLFI 231756Z 19019KT 10SM CLR 17/07 A3024 RMK AO2A SLP247 T01670065 10167 20015 57035 $

TAF KLFI 231800Z 2318/2424 17015G25KT 9999 BKN040 WS004/22050KT QNH3020INS
  BECMG 2411/2412 19015G25KT 8000 -RA OVC020 WS010/20060KT QNH2983INS
  BECMG 2421/2422 29015G20KT 9999 NSW BKN035 QNH2972INS
  BECMG 2423/2424 30012G18KT 9999 FEW030 SCT050 QNH2960INS TX19/2415Z TN08/2402Z


KNTU 231756Z 19013G26KT 10SM FEW070 BKN250 17/06 A3027 RMK AO2 PK WND 20026/1737 SLP254 T01670056 10167 20011 58033

TAF KNTU 2315/2415 18012G20KT 9999 FEW030 SCT070 BKN250 WS020/20045KT 510109 QNH3007INS
  FM240000 17015G24KT 8000 BR SCT005 BKN020 BKN250 WS020/21050KT 510206 QNH2983INS
  FM240700 18018G28KT 6000 BR SCT010 BKN015 OVC030 WS020/21055KT 550206 QNH2957INS
  TEMPO 2413/2415 3200 -RA BR BKN005 OVC010 T16/2319Z T10/2409Z FN20008


KECG 231754Z 17012G24KT 10SM BKN085 17/06 A3032 RMK AO2 SLP265 T01670061 10172 21011 58032

TAF COR KECG 231758Z 2318/2418 17012G20KT P6SM SCT060 BKN080
  FM240500 17015G23KT P6SM OVC050 WS020/18045KT
  FM240900 18016G25KT P6SM OVC030 WS020/19050KT
  FM241200 18020G30KT 6SM -SHRA OVC020 WS020/19055KT
  FM241400 19019G29KT 2SM +RA BR OVC010
  FM241700 22017G25KT 5SM RA OVC015


KEWN 231754Z 17012G19KT 10SM OVC075 18/10 A3033 RMK AO2 SLP271 60000 T01780100 10178 20044 58025

KEWN 231720Z 2318/2418 17011G18KT P6SM SCT040 BKN070
  FM240400 18012G20KT P6SM BKN040 WS020/18040KT
  FM241200 19017G27KT 4SM SHRA SCT015 OVC030 WS020/20055KT
  FM241700 23015G25KT 6SM SHRA OVC020


KNKT 231654Z 16011KT 10SM OVC065 17/11 A3038 RMK A02 SLP284 T01720106

TAF KNKT 2315/2415 15008KT 9999 BKN070 QNH3026INS
  BECMG 2319/2321 16010KT 9999 BKN025 BKN070 QNH3009INS
  FM240200 17012KT 9999 BKN020 OVC060 QNH2980INS
  TEMPO 2402/2408 18013G23KT T17/2319Z T14/2401Z


KILM 231753Z 12007KT 10SM BKN075 18/13 A3031 RMK AO2 RAB1654E10 SLP262 P0001 60001 T01780128 10178 20117 58029

KILM 231720Z 2318/2418 15011G18KT P6SM BKN060
  FM240100 15013G20KT P6SM OVC050
  FM241000 19017G25KT P6SM VCSH OVC040
  FM241200 19018G26KT 4SM SHRA BKN016
  TEMPO 2414/2417 1SM +SHRA BR BKN004


KCAE 231810Z 15015G20KT 10SM SCT021 OVC060 18/14 A3017 RMK AO2 WSHFT 1750 FROPA T01780144 PNO $

KCAE 231738Z 2318/2418 14008KT P6SM SCT015 BKN050 WS020/18045KT
  TEMPO 2318/2320 3SM -SHRA BR BKN025 OVC050
  FM232100 15009KT P6SM VCSH SCT010 BKN025 WS020/18045KT
  FM240400 17014G24KT 2SM SHRA BR SCT008 OVC015
  FM241000 24010G20KT 4SM -SHRA BR SCT008 OVC015
  FM241500 26012G19KT P6SM SCT015 BKN050


KSSC 231839Z 19006KT 10SM FEW017 BKN021 OVC040 15/12 A3018 RMK AO2A

TAF KSSC 231600Z 2316/2422 12007KT 9999 FEW025 BKN080 QNH3018INS
  BECMG 2317/2318 15010G15KT 9000 -SHRA BKN020 OVC070 QNH3002INS
  BECMG 2323/2324 17012G20KT 9000 -SHRA BKN015 OVC060 520103 QNH2994INS
  BECMG 2403/2404 17015G25KT 4800 -SHRA BKN007 OVC030 520103 QNH2980INS
  BECMG 2407/2408 20020G30KT 8000 -SHRA BKN012 OVC030 QNH2978INS
  BECMG 2413/2414 25015G25KT 9999 VCSH SCT015 BKN035 QNH2980INS TX17/2410Z TN12/2316Z


KMMT 231836Z 14010KT 6SM -RA BR BKN004 OVC040 15/15 A3018 RMK AO2A SLP223 $

TAF AMD KMMT 231842Z 2318/2422 18010G15KT 9000 -SHRA BKN004 QNH3002INS
  TEMPO 2318/2320 BKN030
  BECMG 2319/2320 18010G15KT 9000 -SHRA BKN030 QNH2996INS
  BECMG 2323/2324 17012G20KT 9000 -SHRA BKN010 520204 QNH2994INS
  BECMG 2403/2404 19015G25KT 4800 -SHRA OVC007 520204 QNH2980INS
  BECMG 2407/2408 20020G30KT 8000 -SHRA OVC012 QNH2978INS
  BECMG 2416/2417 24010G20KT 9999 NSW SCT025 QNH2980INS TX17/2410Z TN12/2318Z


KMYR 231756Z 14010KT 10SM OVC085 18/13 A3026 RMK AO2 SLP248 T01830128 10189 20133 58037

KMYR 231720Z 2318/2418 12009KT P6SM BKN060
  FM232300 16013KT P6SM OVC035
  FM241000 20017G25KT P6SM VCSH OVC040
  FM241200 20018G28KT 4SM SHRA BKN016
  TEMPO 2414/2417 1SM +SHRA BR BKN004


KCHS 231756Z 16021G27KT 10SM SCT040 BKN050 BKN090 21/13 A3023 RMK AO2 PK WND 16027/1756 SLP236 60000 T02060133 10211 20094 58032

KCHS 231720Z 2318/2418 16013G19KT P6SM VCSH BKN050
  FM240000 17015G22KT P6SM SCT020 BKN035
  FM240900 21019G26KT 4SM SHRA BR SCT005 OVC015
  FM241500 26015G23KT P6SM SCT025 BKN050


KSAV 231753Z 15009KT 10SM BKN022 BKN070 19/17 A3020 RMK AO2 RAE07 PRESFR SLP224 P0004 60013 T01890167 10194 20106 58035

KSAV 231720Z 2318/2418 16013G19KT P6SM SCT030 BKN050
  FM240000 17015G22KT P6SM SCT020 BKN035
  FM240800 21016G25KT 4SM SHRA BR SCT005 OVC015
  FM241500 27015G22KT P6SM SCT025 BKN050


KSVN 231756Z AUTO 16007KT 10SM FEW080 19/17 A3017 RMK AO2 SLP220 60007 T01900171 10192 20108 57034 FZRANO $

TAF AMD KSVN 231335Z 2313/2419 16009KT 9999 VCSH SCT030 OVC070 QNH3023INS
  BECMG 2318/2319 17012G18KT 9999 NSW BKN030 OVC050 QNH3010INS
  BECMG 2323/2324 17012G20KT 9999 FEW020 OVC040 510053 QNH2990INS
  BECMG 2407/2408 19015G20KT 4800 -RA BKN006 OVC015 520005 QNH2973INS
  TEMPO 2408/2412 19015G35KT 1600 +RA
  BECMG 2414/2415 27020G30KT 9999 NSW FEW006 SCT030 510005 QNH2985INS TX20/2320Z TN11/2313Z


KDCA 231752Z 20016KT 10SM FEW030 BKN048 OVC230 09/M02 A3020 RMK AO2 SLP227 T00941017 10094 20011 58035

KDCA 231736Z 2318/2424 19009G17KT P6SM BKN030 OVC050 WS020/20045KT
  FM231900 18008G16KT P6SM SCT008 OVC025 WS020/20050KT
  FM232300 18008KT 5SM -DZ BKN008 OVC015 WS020/19060KT
  FM240400 17005KT 3SM -RA BKN008 OVC015 WS020/19060KT
  FM240900 17015G30KT 3SM -RA SCT008 OVC015 WS020/20055KT
  FM241200 17015G25KT 2SM +RA SCT008 OVC025 WS020/20055KT
  FM241600 33012G23KT 6SM -SHRA SCT008 BKN025 OVC050


KADW 231756Z AUTO 20012G22KT 10SM BKN046 08/00 A3018 RMK AO2 SLP229 T00841004 10084 21001 57034 $

TAF KADW 231700Z 2317/2423 19015KT 9999 BKN030 WS020/22050KT QNH3008INS
  TEMPO 2317/2321 20015G25KT
  BECMG 2320/2321 18012G20KT 9999 BKN015 OVC030 WS020/21060KT QNH2999INS
  BECMG 2322/2323 18010G15KT 9999 BKN007 OVC015 WS020/21060KT QNH2977INS
  BECMG 2404/2405 18010G15KT 6000 -SHRA OVC005 WS020/20055KT 510209 QNH2938INS
  BECMG 2415/2416 30015G25KT 6000 -SHRA OVC005 QNH2940INS
  TEMPO 2416/2420 30025G35KT 510003
  BECMG 2419/2420 30015G25KT 9999 NSW BKN010 QNH2968INS TX14/2417Z TN07/2317Z